sensor_id;sensor_type;location;lat;lon;timestamp;P1;durP1;ratioP1;P2;durP2;ratioP2
11616;SDS011;5864;52.998;9.068;2024-03-23T00:54:36;15.37;;;4.40;;
11616;SDS011;5864;52.998;9.068;2024-03-23T00:57:03;14.40;;;4.03;;
11616;SDS011;5864;52.998;9.068;2024-03-23T00:59:29;16.10;;;4.20;;
11616;SDS011;5864;52.998;9.068;2024-03-23T01:01:56;15.30;;;4.27;;
11616;SDS011;5864;52.998;9.068;2024-03-23T01:04:22;15.30;;;4.37;;
11616;SDS011;5864;52.998;9.068;2024-03-23T01:06:50;17.83;;;4.50;;
11616;SDS011;5864;52.998;9.068;2024-03-23T01:09:16;16.87;;;4.30;;
11616;SDS011;5864;52.998;9.068;2024-03-23T01:11:44;20.03;;;4.63;;
11616;SDS011;5864;52.998;9.068;2024-03-23T01:14:10;15.83;;;4.00;;
11616;SDS011;5864;52.998;9.068;2024-03-23T01:16:37;15.20;;;4.03;;
11616;SDS011;5864;52.998;9.068;2024-03-23T01:19:03;20.03;;;3.83;;
11616;SDS011;5864;52.998;9.068;2024-03-23T01:21:31;16.57;;;4.10;;
11616;SDS011;5864;52.998;9.068;2024-03-23T01:23:57;13.53;;;3.67;;
11616;SDS011;5864;52.998;9.068;2024-03-23T01:26:24;18.37;;;4.53;;
11616;SDS011;5864;52.998;9.068;2024-03-23T01:28:51;21.47;;;5.47;;
11616;SDS011;5864;52.998;9.068;2024-03-23T01:31:18;18.80;;;4.87;;
11616;SDS011;5864;52.998;9.068;2024-03-23T01:33:44;21.07;;;4.57;;
11616;SDS011;5864;52.998;9.068;2024-03-23T01:36:11;17.80;;;4.67;;
11616;SDS011;5864;52.998;9.068;2024-03-23T01:38:37;15.37;;;4.70;;
11616;SDS011;5864;52.998;9.068;2024-03-23T01:41:04;13.53;;;4.17;;
11616;SDS011;5864;52.998;9.068;2024-03-23T01:43:30;14.80;;;3.77;;
11616;SDS011;5864;52.998;9.068;2024-03-23T01:45:58;13.37;;;3.83;;
11616;SDS011;5864;52.998;9.068;2024-03-23T01:48:25;14.73;;;4.30;;
11616;SDS011;5864;52.998;9.068;2024-03-23T01:50:52;15.93;;;4.20;;
11616;SDS011;5864;52.998;9.068;2024-03-23T01:53:18;19.37;;;4.73;;
11616;SDS011;5864;52.998;9.068;2024-03-23T01:55:50;13.63;;;3.80;;
11616;SDS011;5864;52.998;9.068;2024-03-23T01:58:16;14.13;;;5.10;;
11616;SDS011;5864;52.998;9.068;2024-03-23T02:00:43;17.77;;;4.50;;
11616;SDS011;5864;52.998;9.068;2024-03-23T02:03:23;19.80;;;4.13;;
11616;SDS011;5864;52.998;9.068;2024-03-23T02:05:50;19.93;;;4.07;;
11616;SDS011;5864;52.998;9.068;2024-03-23T02:08:17;18.23;;;4.80;;
11616;SDS011;5864;52.998;9.068;2024-03-23T02:10:46;17.07;;;4.07;;
11616;SDS011;5864;52.998;9.068;2024-03-23T02:13:13;18.60;;;5.07;;
11616;SDS011;5864;52.998;9.068;2024-03-23T02:15:41;14.57;;;4.53;;
11616;SDS011;5864;52.998;9.068;2024-03-23T02:18:07;18.77;;;4.33;;
11616;SDS011;5864;52.998;9.068;2024-03-23T02:20:36;18.77;;;5.07;;
11616;SDS011;5864;52.998;9.068;2024-03-23T02:23:04;20.27;;;4.53;;
11616;SDS011;5864;52.998;9.068;2024-03-23T02:25:32;14.43;;;4.00;;
11616;SDS011;5864;52.998;9.068;2024-03-23T02:27:58;16.50;;;3.97;;
11616;SDS011;5864;52.998;9.068;2024-03-23T02:30:25;24.90;;;5.00;;
11616;SDS011;5864;52.998;9.068;2024-03-23T02:32:51;19.53;;;5.00;;
11616;SDS011;5864;52.998;9.068;2024-03-23T02:35:18;20.70;;;5.13;;
11616;SDS011;5864;52.998;9.068;2024-03-23T02:37:45;19.43;;;4.50;;
11616;SDS011;5864;52.998;9.068;2024-03-23T02:40:15;14.27;;;4.60;;
11616;SDS011;5864;52.998;9.068;2024-03-23T02:42:41;14.03;;;4.57;;
11616;SDS011;5864;52.998;9.068;2024-03-23T02:45:08;19.03;;;4.83;;
11616;SDS011;5864;52.998;9.068;2024-03-23T02:47:34;14.43;;;4.37;;
11616;SDS011;5864;52.998;9.068;2024-03-23T02:50:01;20.40;;;4.90;;
11616;SDS011;5864;52.998;9.068;2024-03-23T02:52:28;14.23;;;4.03;;
11616;SDS011;5864;52.998;9.068;2024-03-23T02:54:55;20.87;;;4.93;;
11616;SDS011;5864;52.998;9.068;2024-03-23T02:57:22;19.53;;;4.73;;
11616;SDS011;5864;52.998;9.068;2024-03-23T02:59:49;17.53;;;4.93;;
11616;SDS011;5864;52.998;9.068;2024-03-23T03:02:16;16.27;;;4.50;;
11616;SDS011;5864;52.998;9.068;2024-03-23T03:04:43;18.47;;;4.93;;
11616;SDS011;5864;52.998;9.068;2024-03-23T03:07:09;20.17;;;5.67;;
11616;SDS011;5864;52.998;9.068;2024-03-23T03:09:36;16.33;;;4.70;;
11616;SDS011;5864;52.998;9.068;2024-03-23T03:12:04;16.87;;;4.83;;
11616;SDS011;5864;52.998;9.068;2024-03-23T03:14:33;23.03;;;5.87;;
11616;SDS011;5864;52.998;9.068;2024-03-23T03:16:59;24.33;;;5.00;;
11616;SDS011;5864;52.998;9.068;2024-03-23T03:19:26;17.90;;;4.90;;
11616;SDS011;5864;52.998;9.068;2024-03-23T03:21:52;16.57;;;3.97;;
11616;SDS011;5864;52.998;9.068;2024-03-23T03:24:19;16.50;;;5.40;;
11616;SDS011;5864;52.998;9.068;2024-03-23T03:26:45;15.80;;;4.77;;
11616;SDS011;5864;52.998;9.068;2024-03-23T03:29:12;17.30;;;4.20;;
11616;SDS011;5864;52.998;9.068;2024-03-23T03:31:40;14.33;;;4.20;;
11616;SDS011;5864;52.998;9.068;2024-03-23T03:34:07;16.90;;;4.10;;
11616;SDS011;5864;52.998;9.068;2024-03-23T03:36:33;25.77;;;5.10;;
11616;SDS011;5864;52.998;9.068;2024-03-23T03:39:00;19.23;;;5.30;;
11616;SDS011;5864;52.998;9.068;2024-03-23T03:41:27;18.43;;;5.30;;
11616;SDS011;5864;52.998;9.068;2024-03-23T03:43:54;28.07;;;5.70;;
11616;SDS011;5864;52.998;9.068;2024-03-23T03:46:21;11.33;;;4.93;;
11616;SDS011;5864;52.998;9.068;2024-03-23T03:48:49;17.30;;;4.20;;
11616;SDS011;5864;52.998;9.068;2024-03-23T03:51:15;18.80;;;4.90;;
11616;SDS011;5864;52.998;9.068;2024-03-23T03:53:42;16.53;;;4.50;;
11616;SDS011;5864;52.998;9.068;2024-03-23T03:56:08;16.47;;;4.73;;
11616;SDS011;5864;52.998;9.068;2024-03-23T03:58:35;16.20;;;4.60;;
11616;SDS011;5864;52.998;9.068;2024-03-23T04:01:01;22.47;;;4.97;;
11616;SDS011;5864;52.998;9.068;2024-03-23T04:03:28;13.93;;;3.80;;
11616;SDS011;5864;52.998;9.068;2024-03-23T04:05:56;17.87;;;4.40;;
11616;SDS011;5864;52.998;9.068;2024-03-23T04:08:23;13.13;;;3.70;;
11616;SDS011;5864;52.998;9.068;2024-03-23T04:10:49;20.30;;;4.60;;
11616;SDS011;5864;52.998;9.068;2024-03-23T04:13:16;12.77;;;3.80;;
11616;SDS011;5864;52.998;9.068;2024-03-23T04:15:42;13.77;;;3.87;;
11616;SDS011;5864;52.998;9.068;2024-03-23T04:18:09;24.40;;;5.03;;
11616;SDS011;5864;52.998;9.068;2024-03-23T04:20:35;16.67;;;3.73;;
11616;SDS011;5864;52.998;9.068;2024-03-23T04:23:04;21.20;;;4.80;;
11616;SDS011;5864;52.998;9.068;2024-03-23T04:25:30;20.10;;;4.87;;
11616;SDS011;5864;52.998;9.068;2024-03-23T04:27:58;14.13;;;4.20;;
11616;SDS011;5864;52.998;9.068;2024-03-23T04:30:23;14.20;;;4.20;;
11616;SDS011;5864;52.998;9.068;2024-03-23T04:32:53;15.97;;;4.40;;
11616;SDS011;5864;52.998;9.068;2024-03-23T04:35:19;12.87;;;3.80;;
11616;SDS011;5864;52.998;9.068;2024-03-23T04:37:47;20.90;;;4.50;;
11616;SDS011;5864;52.998;9.068;2024-03-23T04:40:15;13.70;;;3.87;;
11616;SDS011;5864;52.998;9.068;2024-03-23T04:42:42;17.57;;;4.67;;
11616;SDS011;5864;52.998;9.068;2024-03-23T04:45:10;21.17;;;5.00;;
11616;SDS011;5864;52.998;9.068;2024-03-23T04:47:37;15.77;;;6.10;;
11616;SDS011;5864;52.998;9.068;2024-03-23T04:50:12;13.63;;;4.67;;
11616;SDS011;5864;52.998;9.068;2024-03-23T04:52:39;21.73;;;4.23;;
11616;SDS011;5864;52.998;9.068;2024-03-23T04:55:08;19.57;;;4.30;;
11616;SDS011;5864;52.998;9.068;2024-03-23T04:57:36;14.27;;;5.20;;
11616;SDS011;5864;52.998;9.068;2024-03-23T05:00:04;17.37;;;4.17;;
11616;SDS011;5864;52.998;9.068;2024-03-23T05:02:42;14.57;;;4.60;;
11616;SDS011;5864;52.998;9.068;2024-03-23T05:05:10;16.13;;;4.30;;
11616;SDS011;5864;52.998;9.068;2024-03-23T05:07:37;19.80;;;4.77;;
11616;SDS011;5864;52.998;9.068;2024-03-23T05:10:05;12.97;;;4.40;;
11616;SDS011;5864;52.998;9.068;2024-03-23T05:12:36;16.37;;;4.20;;
11616;SDS011;5864;52.998;9.068;2024-03-23T05:15:04;15.90;;;4.37;;
11616;SDS011;5864;52.998;9.068;2024-03-23T05:17:31;14.63;;;4.00;;
11616;SDS011;5864;52.998;9.068;2024-03-23T05:19:58;12.27;;;3.93;;
11616;SDS011;5864;52.998;9.068;2024-03-23T05:22:24;19.30;;;4.40;;
11616;SDS011;5864;52.998;9.068;2024-03-23T05:24:52;19.27;;;4.90;;
11616;SDS011;5864;52.998;9.068;2024-03-23T05:27:18;19.60;;;5.27;;
11616;SDS011;5864;52.998;9.068;2024-03-23T05:29:47;13.23;;;3.83;;
11616;SDS011;5864;52.998;9.068;2024-03-23T05:32:12;19.63;;;4.63;;
11616;SDS011;5864;52.998;9.068;2024-03-23T05:34:40;15.17;;;4.23;;
11616;SDS011;5864;52.998;9.068;2024-03-23T05:37:06;19.03;;;4.70;;
11616;SDS011;5864;52.998;9.068;2024-03-23T05:39:33;18.50;;;4.53;;
11616;SDS011;5864;52.998;9.068;2024-03-23T05:41:59;13.80;;;4.40;;
11616;SDS011;5864;52.998;9.068;2024-03-23T05:44:26;10.80;;;4.53;;
11616;SDS011;5864;52.998;9.068;2024-03-23T05:46:54;16.57;;;4.67;;
11616;SDS011;5864;52.998;9.068;2024-03-23T05:49:21;15.00;;;4.37;;
11616;SDS011;5864;52.998;9.068;2024-03-23T05:51:48;15.50;;;4.33;;
11616;SDS011;5864;52.998;9.068;2024-03-23T05:54:14;13.27;;;4.20;;
11616;SDS011;5864;52.998;9.068;2024-03-23T05:56:41;17.83;;;4.20;;
11616;SDS011;5864;52.998;9.068;2024-03-23T05:59:07;20.63;;;4.73;;
11616;SDS011;5864;52.998;9.068;2024-03-23T06:01:34;17.63;;;4.10;;
11616;SDS011;5864;52.998;9.068;2024-03-23T06:04:02;14.97;;;4.27;;
11616;SDS011;5864;52.998;9.068;2024-03-23T06:06:29;16.87;;;4.50;;
11616;SDS011;5864;52.998;9.068;2024-03-23T06:08:56;20.37;;;4.03;;
11616;SDS011;5864;52.998;9.068;2024-03-23T06:11:22;17.10;;;3.87;;
11616;SDS011;5864;52.998;9.068;2024-03-23T06:13:51;15.53;;;5.10;;
11616;SDS011;5864;52.998;9.068;2024-03-23T06:16:17;19.83;;;5.23;;
11616;SDS011;5864;52.998;9.068;2024-03-23T06:18:48;15.33;;;4.30;;
11616;SDS011;5864;52.998;9.068;2024-03-23T06:21:16;16.73;;;4.40;;
11616;SDS011;5864;52.998;9.068;2024-03-23T06:23:43;19.43;;;4.87;;
11616;SDS011;5864;52.998;9.068;2024-03-23T06:26:16;18.83;;;4.77;;
11616;SDS011;5864;52.998;9.068;2024-03-23T06:28:43;14.50;;;4.57;;
11616;SDS011;5864;52.998;9.068;2024-03-23T06:31:10;10.47;;;3.60;;
11616;SDS011;5864;52.998;9.068;2024-03-23T06:33:36;14.13;;;4.27;;
11616;SDS011;5864;52.998;9.068;2024-03-23T06:36:04;14.37;;;4.40;;
11616;SDS011;5864;52.998;9.068;2024-03-23T06:38:32;19.10;;;4.53;;
11616;SDS011;5864;52.998;9.068;2024-03-23T06:41:02;15.47;;;4.10;;
11616;SDS011;5864;52.998;9.068;2024-03-23T06:43:28;16.87;;;4.40;;
11616;SDS011;5864;52.998;9.068;2024-03-23T06:45:55;16.77;;;4.90;;
11616;SDS011;5864;52.998;9.068;2024-03-23T06:48:22;13.67;;;4.67;;
11616;SDS011;5864;52.998;9.068;2024-03-23T06:50:49;17.23;;;4.70;;
11616;SDS011;5864;52.998;9.068;2024-03-23T06:53:20;13.07;;;3.87;;
11616;SDS011;5864;52.998;9.068;2024-03-23T06:55:51;14.37;;;4.40;;
11616;SDS011;5864;52.998;9.068;2024-03-23T06:58:18;13.53;;;4.47;;
11616;SDS011;5864;52.998;9.068;2024-03-23T07:00:45;10.03;;;3.67;;
11616;SDS011;5864;52.998;9.068;2024-03-23T07:03:11;15.10;;;4.63;;
11616;SDS011;5864;52.998;9.068;2024-03-23T07:05:38;12.37;;;3.90;;
11616;SDS011;5864;52.998;9.068;2024-03-23T07:08:05;15.90;;;4.93;;
11616;SDS011;5864;52.998;9.068;2024-03-23T07:10:32;15.33;;;4.27;;
11616;SDS011;5864;52.998;9.068;2024-03-23T07:12:59;15.47;;;4.70;;
11616;SDS011;5864;52.998;9.068;2024-03-23T07:15:26;14.43;;;4.37;;
11616;SDS011;5864;52.998;9.068;2024-03-23T07:17:52;11.63;;;4.27;;
11616;SDS011;5864;52.998;9.068;2024-03-23T07:20:19;10.13;;;3.77;;
11616;SDS011;5864;52.998;9.068;2024-03-23T07:22:45;11.30;;;3.80;;
11616;SDS011;5864;52.998;9.068;2024-03-23T07:25:13;11.73;;;4.33;;
11616;SDS011;5864;52.998;9.068;2024-03-23T07:27:39;14.37;;;4.33;;
11616;SDS011;5864;52.998;9.068;2024-03-23T07:30:08;11.00;;;4.03;;
11616;SDS011;5864;52.998;9.068;2024-03-23T07:32:34;12.27;;;4.23;;
11616;SDS011;5864;52.998;9.068;2024-03-23T07:35:01;14.00;;;4.30;;
11616;SDS011;5864;52.998;9.068;2024-03-23T07:37:28;10.67;;;3.70;;
11616;SDS011;5864;52.998;9.068;2024-03-23T07:39:55;11.13;;;3.90;;
11616;SDS011;5864;52.998;9.068;2024-03-23T07:42:22;11.30;;;3.77;;
11616;SDS011;5864;52.998;9.068;2024-03-23T07:44:51;14.03;;;4.63;;
11616;SDS011;5864;52.998;9.068;2024-03-23T07:47:20;13.47;;;4.63;;
11616;SDS011;5864;52.998;9.068;2024-03-23T07:49:47;11.80;;;3.80;;
11616;SDS011;5864;52.998;9.068;2024-03-23T07:52:14;11.73;;;3.80;;
11616;SDS011;5864;52.998;9.068;2024-03-23T07:54:41;14.27;;;4.37;;
11616;SDS011;5864;52.998;9.068;2024-03-23T07:57:07;14.57;;;4.50;;
11616;SDS011;5864;52.998;9.068;2024-03-23T07:59:34;9.90;;;4.07;;
11616;SDS011;5864;52.998;9.068;2024-03-23T08:02:00;13.70;;;4.10;;
11616;SDS011;5864;52.998;9.068;2024-03-23T08:04:28;11.77;;;4.07;;
11616;SDS011;5864;52.998;9.068;2024-03-23T08:06:55;12.33;;;3.97;;
11616;SDS011;5864;52.998;9.068;2024-03-23T08:09:22;13.37;;;4.30;;
11616;SDS011;5864;52.998;9.068;2024-03-23T08:11:49;13.00;;;4.40;;
11616;SDS011;5864;52.998;9.068;2024-03-23T08:14:15;11.97;;;4.33;;
11616;SDS011;5864;52.998;9.068;2024-03-23T08:16:42;16.63;;;3.97;;
11616;SDS011;5864;52.998;9.068;2024-03-23T08:19:13;12.77;;;4.30;;
11616;SDS011;5864;52.998;9.068;2024-03-23T08:21:42;10.07;;;3.90;;
11616;SDS011;5864;52.998;9.068;2024-03-23T08:24:08;14.03;;;4.73;;
11616;SDS011;5864;52.998;9.068;2024-03-23T08:26:35;10.87;;;3.50;;
11616;SDS011;5864;52.998;9.068;2024-03-23T08:29:02;16.03;;;4.27;;
11616;SDS011;5864;52.998;9.068;2024-03-23T08:31:30;13.63;;;4.23;;
11616;SDS011;5864;52.998;9.068;2024-03-23T08:33:57;13.00;;;3.93;;
11616;SDS011;5864;52.998;9.068;2024-03-23T08:36:23;10.03;;;3.73;;
11616;SDS011;5864;52.998;9.068;2024-03-23T08:38:51;11.83;;;4.03;;
11616;SDS011;5864;52.998;9.068;2024-03-23T08:41:19;12.80;;;3.97;;
11616;SDS011;5864;52.998;9.068;2024-03-23T08:43:45;14.33;;;4.13;;
11616;SDS011;5864;52.998;9.068;2024-03-23T08:46:12;15.23;;;4.23;;
11616;SDS011;5864;52.998;9.068;2024-03-23T08:48:41;11.37;;;4.23;;
11616;SDS011;5864;52.998;9.068;2024-03-23T08:51:09;10.70;;;3.57;;
11616;SDS011;5864;52.998;9.068;2024-03-23T08:53:37;10.23;;;3.23;;
11616;SDS011;5864;52.998;9.068;2024-03-23T08:56:05;12.13;;;3.30;;
11616;SDS011;5864;52.998;9.068;2024-03-23T08:58:33;11.43;;;3.93;;
11616;SDS011;5864;52.998;9.068;2024-03-23T09:01:03;12.97;;;3.70;;
11616;SDS011;5864;52.998;9.068;2024-03-23T09:03:34;12.33;;;3.63;;
11616;SDS011;5864;52.998;9.068;2024-03-23T09:06:00;9.67;;;3.33;;
11616;SDS011;5864;52.998;9.068;2024-03-23T09:08:28;10.53;;;3.13;;
11616;SDS011;5864;52.998;9.068;2024-03-23T09:10:54;8.97;;;3.10;;
11616;SDS011;5864;52.998;9.068;2024-03-23T09:13:22;10.47;;;3.23;;
11616;SDS011;5864;52.998;9.068;2024-03-23T09:15:49;8.70;;;3.37;;
11616;SDS011;5864;52.998;9.068;2024-03-23T09:18:17;11.67;;;3.43;;
11616;SDS011;5864;52.998;9.068;2024-03-23T09:20:43;7.53;;;2.83;;
11616;SDS011;5864;52.998;9.068;2024-03-23T09:23:10;10.00;;;3.27;;
11616;SDS011;5864;52.998;9.068;2024-03-23T09:25:37;10.30;;;3.40;;
11616;SDS011;5864;52.998;9.068;2024-03-23T09:28:04;8.60;;;2.87;;
11616;SDS011;5864;52.998;9.068;2024-03-23T09:30:33;9.90;;;2.77;;
11616;SDS011;5864;52.998;9.068;2024-03-23T09:33:00;9.07;;;2.83;;
11616;SDS011;5864;52.998;9.068;2024-03-23T09:35:26;5.90;;;2.53;;
11616;SDS011;5864;52.998;9.068;2024-03-23T09:37:53;7.40;;;2.67;;
11616;SDS011;5864;52.998;9.068;2024-03-23T09:40:19;8.37;;;2.57;;
11616;SDS011;5864;52.998;9.068;2024-03-23T09:42:49;9.27;;;2.83;;
11616;SDS011;5864;52.998;9.068;2024-03-23T09:45:17;10.63;;;3.37;;
11616;SDS011;5864;52.998;9.068;2024-03-23T09:47:48;9.37;;;2.53;;
11616;SDS011;5864;52.998;9.068;2024-03-23T09:50:15;5.57;;;2.50;;
11616;SDS011;5864;52.998;9.068;2024-03-23T09:52:43;8.30;;;2.80;;
11616;SDS011;5864;52.998;9.068;2024-03-23T09:55:11;5.80;;;2.17;;
11616;SDS011;5864;52.998;9.068;2024-03-23T09:57:39;8.57;;;2.37;;
11616;SDS011;5864;52.998;9.068;2024-03-23T10:00:05;6.57;;;2.23;;
11616;SDS011;5864;52.998;9.068;2024-03-23T10:02:34;4.90;;;1.93;;
11616;SDS011;5864;52.998;9.068;2024-03-23T10:05:01;7.50;;;2.23;;
11616;SDS011;5864;52.998;9.068;2024-03-23T10:07:29;6.77;;;2.20;;
11616;SDS011;5864;52.998;9.068;2024-03-23T10:09:55;7.23;;;2.43;;
11616;SDS011;5864;52.998;9.068;2024-03-23T10:12:23;6.23;;;2.27;;
11616;SDS011;5864;52.998;9.068;2024-03-23T10:14:50;5.40;;;2.30;;
11616;SDS011;5864;52.998;9.068;2024-03-23T10:17:17;5.90;;;1.87;;
11616;SDS011;5864;52.998;9.068;2024-03-23T10:19:44;6.93;;;2.20;;
11616;SDS011;5864;52.998;9.068;2024-03-23T10:22:14;5.73;;;2.10;;
11616;SDS011;5864;52.998;9.068;2024-03-23T10:24:42;4.63;;;1.63;;
11616;SDS011;5864;52.998;9.068;2024-03-23T10:27:12;4.83;;;1.80;;
11616;SDS011;5864;52.998;9.068;2024-03-23T10:29:41;5.27;;;1.67;;
11616;SDS011;5864;52.998;9.068;2024-03-23T10:32:08;5.20;;;1.77;;
11616;SDS011;5864;52.998;9.068;2024-03-23T10:34:35;5.97;;;1.73;;
11616;SDS011;5864;52.998;9.068;2024-03-23T10:37:03;4.87;;;1.90;;
11616;SDS011;5864;52.998;9.068;2024-03-23T10:39:32;7.37;;;2.37;;
11616;SDS011;5864;52.998;9.068;2024-03-23T10:42:00;5.20;;;1.90;;
11616;SDS011;5864;52.998;9.068;2024-03-23T10:44:29;5.40;;;2.00;;
11616;SDS011;5864;52.998;9.068;2024-03-23T10:46:57;5.53;;;2.10;;
11616;SDS011;5864;52.998;9.068;2024-03-23T10:49:27;5.60;;;1.80;;
11616;SDS011;5864;52.998;9.068;2024-03-23T10:51:59;4.90;;;1.83;;
11616;SDS011;5864;52.998;9.068;2024-03-23T10:54:26;7.67;;;2.70;;
11616;SDS011;5864;52.998;9.068;2024-03-23T10:56:57;6.20;;;2.50;;
11616;SDS011;5864;52.998;9.068;2024-03-23T10:59:29;7.67;;;2.60;;
11616;SDS011;5864;52.998;9.068;2024-03-23T11:01:58;7.07;;;2.60;;
11616;SDS011;5864;52.998;9.068;2024-03-23T11:04:31;6.03;;;2.53;;
11616;SDS011;5864;52.998;9.068;2024-03-23T11:06:59;10.50;;;2.43;;
11616;SDS011;5864;52.998;9.068;2024-03-23T11:12:26;5.50;;;2.33;;
11616;SDS011;5864;52.998;9.068;2024-03-23T11:14:53;12.00;;;4.47;;
11616;SDS011;5864;52.998;9.068;2024-03-23T11:17:22;8.47;;;3.87;;
11616;SDS011;5864;52.998;9.068;2024-03-23T11:19:56;11.57;;;4.17;;
11616;SDS011;5864;52.998;9.068;2024-03-23T11:22:42;9.23;;;3.60;;
11616;SDS011;5864;52.998;9.068;2024-03-23T11:25:16;5.33;;;2.37;;
11616;SDS011;5864;52.998;9.068;2024-03-23T11:27:47;5.80;;;2.23;;
11616;SDS011;5864;52.998;9.068;2024-03-23T11:30:15;3.87;;;1.77;;
11616;SDS011;5864;52.998;9.068;2024-03-23T11:32:44;6.03;;;2.00;;
11616;SDS011;5864;52.998;9.068;2024-03-23T11:35:10;5.27;;;1.97;;
11616;SDS011;5864;52.998;9.068;2024-03-23T11:38:06;4.23;;;2.10;;
11616;SDS011;5864;52.998;9.068;2024-03-23T11:40:34;5.13;;;2.43;;
11616;SDS011;5864;52.998;9.068;2024-03-23T11:43:03;4.80;;;2.13;;
11616;SDS011;5864;52.998;9.068;2024-03-23T11:45:34;4.07;;;1.77;;
11616;SDS011;5864;52.998;9.068;2024-03-23T11:48:02;4.83;;;2.10;;
11616;SDS011;5864;52.998;9.068;2024-03-23T11:50:33;4.50;;;1.83;;
11616;SDS011;5864;52.998;9.068;2024-03-23T11:53:12;4.93;;;1.53;;
11616;SDS011;5864;52.998;9.068;2024-03-23T11:55:41;4.03;;;1.47;;
11616;SDS011;5864;52.998;9.068;2024-03-23T11:58:09;4.53;;;1.83;;
11616;SDS011;5864;52.998;9.068;2024-03-23T12:00:36;7.13;;;1.97;;
11616;SDS011;5864;52.998;9.068;2024-03-23T12:03:03;6.27;;;1.80;;
11616;SDS011;5864;52.998;9.068;2024-03-23T12:05:31;5.50;;;1.67;;
11616;SDS011;5864;52.998;9.068;2024-03-23T12:10:44;5.93;;;2.00;;
11616;SDS011;5864;52.998;9.068;2024-03-23T12:13:12;5.10;;;1.70;;
11616;SDS011;5864;52.998;9.068;2024-03-23T12:15:42;3.93;;;1.70;;
11616;SDS011;5864;52.998;9.068;2024-03-23T12:18:09;6.07;;;2.10;;
11616;SDS011;5864;52.998;9.068;2024-03-23T12:20:37;5.53;;;2.00;;
11616;SDS011;5864;52.998;9.068;2024-03-23T12:23:09;4.43;;;1.83;;
11616;SDS011;5864;52.998;9.068;2024-03-23T12:25:40;5.27;;;2.00;;
11616;SDS011;5864;52.998;9.068;2024-03-23T12:28:06;5.97;;;2.30;;
11616;SDS011;5864;52.998;9.068;2024-03-23T12:30:35;8.30;;;2.00;;
11616;SDS011;5864;52.998;9.068;2024-03-23T12:33:04;5.43;;;2.00;;
11616;SDS011;5864;52.998;9.068;2024-03-23T12:35:31;5.80;;;2.30;;
11616;SDS011;5864;52.998;9.068;2024-03-23T12:37:58;4.27;;;2.20;;
11616;SDS011;5864;52.998;9.068;2024-03-23T12:40:25;5.50;;;1.90;;
11616;SDS011;5864;52.998;9.068;2024-03-23T12:42:55;2.83;;;1.23;;
11616;SDS011;5864;52.998;9.068;2024-03-23T12:45:22;4.03;;;1.40;;
11616;SDS011;5864;52.998;9.068;2024-03-23T12:47:50;2.50;;;1.43;;
11616;SDS011;5864;52.998;9.068;2024-03-23T12:50:18;4.70;;;1.80;;
11616;SDS011;5864;52.998;9.068;2024-03-23T12:52:45;4.00;;;1.50;;
11616;SDS011;5864;52.998;9.068;2024-03-23T12:55:11;4.03;;;1.30;;
11616;SDS011;5864;52.998;9.068;2024-03-23T12:57:38;3.60;;;1.20;;
11616;SDS011;5864;52.998;9.068;2024-03-23T13:00:06;2.70;;;1.50;;
11616;SDS011;5864;52.998;9.068;2024-03-23T13:02:35;1.67;;;1.20;;
11616;SDS011;5864;52.998;9.068;2024-03-23T13:05:05;1.57;;;1.43;;
11616;SDS011;5864;52.998;9.068;2024-03-23T13:07:33;3.93;;;1.43;;
11616;SDS011;5864;52.998;9.068;2024-03-23T13:10:00;4.43;;;1.50;;
11616;SDS011;5864;52.998;9.068;2024-03-23T13:12:27;4.23;;;1.87;;
11616;SDS011;5864;52.998;9.068;2024-03-23T13:14:54;4.43;;;1.57;;
11616;SDS011;5864;52.998;9.068;2024-03-23T13:17:20;1.57;;;1.40;;
11616;SDS011;5864;52.998;9.068;2024-03-23T13:19:47;5.23;;;1.40;;
11616;SDS011;5864;52.998;9.068;2024-03-23T13:22:14;2.57;;;1.77;;
11616;SDS011;5864;52.998;9.068;2024-03-23T13:24:41;5.47;;;1.20;;
11616;SDS011;5864;52.998;9.068;2024-03-23T13:27:08;3.23;;;1.37;;
11616;SDS011;5864;52.998;9.068;2024-03-23T13:29:36;2.57;;;1.50;;
11616;SDS011;5864;52.998;9.068;2024-03-23T13:32:03;2.67;;;1.50;;
11616;SDS011;5864;52.998;9.068;2024-03-23T13:34:30;3.47;;;1.67;;
11616;SDS011;5864;52.998;9.068;2024-03-23T13:36:56;5.23;;;1.80;;
11616;SDS011;5864;52.998;9.068;2024-03-23T13:39:25;1.83;;;1.40;;
11616;SDS011;5864;52.998;9.068;2024-03-23T13:41:53;3.93;;;1.77;;
11616;SDS011;5864;52.998;9.068;2024-03-23T13:44:21;5.70;;;2.83;;
11616;SDS011;5864;52.998;9.068;2024-03-23T13:46:47;4.10;;;2.10;;
11616;SDS011;5864;52.998;9.068;2024-03-23T13:49:20;3.43;;;1.23;;
11616;SDS011;5864;52.998;9.068;2024-03-23T13:51:51;3.00;;;1.40;;
11616;SDS011;5864;52.998;9.068;2024-03-23T13:54:19;4.40;;;1.80;;
11616;SDS011;5864;52.998;9.068;2024-03-23T13:56:48;3.93;;;1.60;;
11616;SDS011;5864;52.998;9.068;2024-03-23T13:59:16;4.20;;;1.63;;
11616;SDS011;5864;52.998;9.068;2024-03-23T14:01:42;3.27;;;1.73;;
11616;SDS011;5864;52.998;9.068;2024-03-23T14:04:10;3.23;;;1.67;;
11616;SDS011;5864;52.998;9.068;2024-03-23T14:06:36;4.57;;;2.10;;
11616;SDS011;5864;52.998;9.068;2024-03-23T14:09:03;6.97;;;1.80;;
11616;SDS011;5864;52.998;9.068;2024-03-23T14:11:29;6.13;;;2.60;;
11616;SDS011;5864;52.998;9.068;2024-03-23T14:13:58;9.20;;;2.97;;
11616;SDS011;5864;52.998;9.068;2024-03-23T14:16:24;6.70;;;3.07;;
11616;SDS011;5864;52.998;9.068;2024-03-23T14:18:50;5.63;;;2.70;;
11616;SDS011;5864;52.998;9.068;2024-03-23T14:21:17;4.73;;;1.80;;
11616;SDS011;5864;52.998;9.068;2024-03-23T14:23:44;4.07;;;1.87;;
11616;SDS011;5864;52.998;9.068;2024-03-23T14:26:10;4.87;;;2.30;;
11616;SDS011;5864;52.998;9.068;2024-03-23T14:28:37;8.23;;;3.40;;
11616;SDS011;5864;52.998;9.068;2024-03-23T14:31:04;3.37;;;1.67;;
11616;SDS011;5864;52.998;9.068;2024-03-23T14:33:35;4.87;;;2.63;;
11616;SDS011;5864;52.998;9.068;2024-03-23T14:36:03;3.50;;;1.60;;
11616;SDS011;5864;52.998;9.068;2024-03-23T14:38:31;3.63;;;2.03;;
11616;SDS011;5864;52.998;9.068;2024-03-23T14:40:57;3.33;;;1.50;;
11616;SDS011;5864;52.998;9.068;2024-03-23T14:43:25;3.20;;;1.50;;
11616;SDS011;5864;52.998;9.068;2024-03-23T14:46:08;3.37;;;1.50;;
11616;SDS011;5864;52.998;9.068;2024-03-23T14:48:37;4.50;;;1.60;;
11616;SDS011;5864;52.998;9.068;2024-03-23T14:51:04;4.73;;;1.57;;
11616;SDS011;5864;52.998;9.068;2024-03-23T14:53:31;4.43;;;1.77;;
11616;SDS011;5864;52.998;9.068;2024-03-23T14:55:58;4.47;;;1.80;;
11616;SDS011;5864;52.998;9.068;2024-03-23T14:58:26;4.40;;;2.10;;
11616;SDS011;5864;52.998;9.068;2024-03-23T15:00:52;2.73;;;2.20;;
11616;SDS011;5864;52.998;9.068;2024-03-23T15:03:21;3.57;;;2.00;;
11616;SDS011;5864;52.998;9.068;2024-03-23T15:05:53;4.23;;;2.17;;
11616;SDS011;5864;52.998;9.068;2024-03-23T15:08:21;4.33;;;2.10;;
11616;SDS011;5864;52.998;9.068;2024-03-23T15:10:48;4.13;;;2.37;;
11616;SDS011;5864;52.998;9.068;2024-03-23T15:13:15;5.73;;;2.70;;
11616;SDS011;5864;52.998;9.068;2024-03-23T15:15:41;4.03;;;2.30;;
11616;SDS011;5864;52.998;9.068;2024-03-23T15:18:10;4.97;;;3.30;;
11616;SDS011;5864;52.998;9.068;2024-03-23T15:20:39;5.90;;;3.63;;
11616;SDS011;5864;52.998;9.068;2024-03-23T15:23:06;3.87;;;2.43;;
11616;SDS011;5864;52.998;9.068;2024-03-23T15:25:33;5.40;;;3.00;;
11616;SDS011;5864;52.998;9.068;2024-03-23T15:28:00;11.87;;;4.50;;
11616;SDS011;5864;52.998;9.068;2024-03-23T15:30:26;4.00;;;1.77;;
11616;SDS011;5864;52.998;9.068;2024-03-23T15:32:54;5.03;;;2.40;;
11616;SDS011;5864;52.998;9.068;2024-03-23T15:35:20;7.50;;;3.63;;
11616;SDS011;5864;52.998;9.068;2024-03-23T15:37:50;5.00;;;2.17;;
11616;SDS011;5864;52.998;9.068;2024-03-23T15:40:16;8.10;;;2.43;;
11616;SDS011;5864;52.998;9.068;2024-03-23T15:42:43;4.43;;;2.67;;
11616;SDS011;5864;52.998;9.068;2024-03-23T15:45:09;4.40;;;2.57;;
11616;SDS011;5864;52.998;9.068;2024-03-23T15:47:36;6.67;;;3.10;;
11616;SDS011;5864;52.998;9.068;2024-03-23T15:50:02;7.73;;;4.27;;
11616;SDS011;5864;52.998;9.068;2024-03-23T15:52:34;5.97;;;3.53;;
11616;SDS011;5864;52.998;9.068;2024-03-23T15:55:02;7.60;;;5.03;;